sensor_id;sensor_type;location;lat;lon;timestamp;P1;durP1;ratioP1;P2;durP2;ratioP2
78430;SDS011;67727;50.236;22.452;2023-09-07T00:01:37;11.50;;;6.90;;
78430;SDS011;67727;50.236;22.452;2023-09-07T00:04:04;15.00;;;8.80;;
78430;SDS011;67727;50.236;22.452;2023-09-07T00:06:32;12.80;;;8.10;;
78430;SDS011;67727;50.236;22.452;2023-09-07T00:09:01;10.60;;;7.90;;
78430;SDS011;67727;50.236;22.452;2023-09-07T00:11:29;12.10;;;7.30;;
78430;SDS011;67727;50.236;22.452;2023-09-07T00:13:56;13.80;;;8.00;;
78430;SDS011;67727;50.236;22.452;2023-09-07T00:16:25;13.70;;;8.20;;
78430;SDS011;67727;50.236;22.452;2023-09-07T00:18:52;11.20;;;8.10;;
78430;SDS011;67727;50.236;22.452;2023-09-07T00:21:18;12.20;;;7.70;;
78430;SDS011;67727;50.236;22.452;2023-09-07T00:23:45;12.10;;;8.30;;
78430;SDS011;67727;50.236;22.452;2023-09-07T00:26:12;11.60;;;7.50;;
78430;SDS011;67727;50.236;22.452;2023-09-07T00:28:39;10.60;;;7.50;;
78430;SDS011;67727;50.236;22.452;2023-09-07T00:31:06;11.20;;;7.50;;
78430;SDS011;67727;50.236;22.452;2023-09-07T00:33:32;12.60;;;7.50;;
78430;SDS011;67727;50.236;22.452;2023-09-07T00:36:01;11.30;;;8.10;;
78430;SDS011;67727;50.236;22.452;2023-09-07T00:38:29;12.20;;;7.30;;
78430;SDS011;67727;50.236;22.452;2023-09-07T00:40:56;9.50;;;7.00;;
78430;SDS011;67727;50.236;22.452;2023-09-07T00:43:23;11.30;;;7.90;;
78430;SDS011;67727;50.236;22.452;2023-09-07T00:45:50;13.20;;;8.60;;
78430;SDS011;67727;50.236;22.452;2023-09-07T00:48:17;10.80;;;7.80;;
78430;SDS011;67727;50.236;22.452;2023-09-07T00:50:44;12.00;;;8.40;;
78430;SDS011;67727;50.236;22.452;2023-09-07T00:55:38;13.40;;;8.80;;
78430;SDS011;67727;50.236;22.452;2023-09-07T00:58:05;11.10;;;7.00;;
78430;SDS011;67727;50.236;22.452;2023-09-07T01:00:32;15.30;;;7.70;;
78430;SDS011;67727;50.236;22.452;2023-09-07T01:03:00;11.90;;;7.40;;
78430;SDS011;67727;50.236;22.452;2023-09-07T01:05:51;13.70;;;7.80;;
78430;SDS011;67727;50.236;22.452;2023-09-07T01:08:44;10.60;;;7.50;;
78430;SDS011;67727;50.236;22.452;2023-09-07T01:11:14;10.00;;;7.80;;
78430;SDS011;67727;50.236;22.452;2023-09-07T01:13:46;11.60;;;8.10;;
78430;SDS011;67727;50.236;22.452;2023-09-07T01:16:13;11.90;;;8.00;;
78430;SDS011;67727;50.236;22.452;2023-09-07T01:18:40;13.50;;;8.30;;
78430;SDS011;67727;50.236;22.452;2023-09-07T01:21:09;11.70;;;7.30;;
78430;SDS011;67727;50.236;22.452;2023-09-07T01:23:40;20.60;;;7.60;;
78430;SDS011;67727;50.236;22.452;2023-09-07T01:26:09;12.20;;;8.10;;
78430;SDS011;67727;50.236;22.452;2023-09-07T01:28:36;12.60;;;8.00;;
78430;SDS011;67727;50.236;22.452;2023-09-07T01:31:04;12.80;;;8.10;;
78430;SDS011;67727;50.236;22.452;2023-09-07T01:33:32;10.50;;;7.40;;
78430;SDS011;67727;50.236;22.452;2023-09-07T01:35:59;14.50;;;9.80;;
78430;SDS011;67727;50.236;22.452;2023-09-07T01:38:26;11.80;;;8.20;;
78430;SDS011;67727;50.236;22.452;2023-09-07T01:40:52;14.60;;;8.10;;
78430;SDS011;67727;50.236;22.452;2023-09-07T01:43:19;12.90;;;7.80;;
78430;SDS011;67727;50.236;22.452;2023-09-07T01:45:46;12.70;;;7.20;;
78430;SDS011;67727;50.236;22.452;2023-09-07T01:48:14;12.10;;;7.40;;
78430;SDS011;67727;50.236;22.452;2023-09-07T01:50:41;10.00;;;7.40;;
78430;SDS011;67727;50.236;22.452;2023-09-07T01:53:08;13.50;;;8.10;;
78430;SDS011;67727;50.236;22.452;2023-09-07T01:55:35;11.00;;;8.00;;
78430;SDS011;67727;50.236;22.452;2023-09-07T01:58:02;14.70;;;8.00;;
78430;SDS011;67727;50.236;22.452;2023-09-07T02:00:29;12.10;;;8.20;;
78430;SDS011;67727;50.236;22.452;2023-09-07T02:02:56;10.90;;;8.50;;
78430;SDS011;67727;50.236;22.452;2023-09-07T02:05:23;10.20;;;7.60;;
78430;SDS011;67727;50.236;22.452;2023-09-07T02:07:49;11.80;;;8.40;;
78430;SDS011;67727;50.236;22.452;2023-09-07T02:10:16;11.70;;;8.50;;
78430;SDS011;67727;50.236;22.452;2023-09-07T02:12:45;13.10;;;8.80;;
78430;SDS011;67727;50.236;22.452;2023-09-07T02:15:37;11.10;;;7.90;;
78430;SDS011;67727;50.236;22.452;2023-09-07T02:18:05;10.90;;;8.20;;
78430;SDS011;67727;50.236;22.452;2023-09-07T02:20:32;12.10;;;7.60;;
78430;SDS011;67727;50.236;22.452;2023-09-07T06:53:26;20.40;;;14.30;;
78430;SDS011;67727;50.236;22.452;2023-09-07T06:55:59;22.30;;;14.70;;
78430;SDS011;67727;50.236;22.452;2023-09-07T06:58:27;20.50;;;13.80;;
78430;SDS011;67727;50.236;22.452;2023-09-07T07:00:57;22.60;;;14.20;;
78430;SDS011;67727;50.236;22.452;2023-09-07T07:03:26;28.40;;;15.90;;
78430;SDS011;67727;50.236;22.452;2023-09-07T07:05:54;21.30;;;14.80;;
78430;SDS011;67727;50.236;22.452;2023-09-07T07:08:22;22.50;;;14.50;;
78430;SDS011;67727;50.236;22.452;2023-09-07T07:10:50;19.10;;;14.30;;
78430;SDS011;67727;50.236;22.452;2023-09-07T07:13:17;21.50;;;14.80;;
78430;SDS011;67727;50.236;22.452;2023-09-07T07:15:44;22.20;;;15.80;;
78430;SDS011;67727;50.236;22.452;2023-09-07T07:18:10;20.70;;;14.00;;
78430;SDS011;67727;50.236;22.452;2023-09-07T07:20:38;22.60;;;15.10;;
78430;SDS011;67727;50.236;22.452;2023-09-07T07:23:06;21.40;;;15.50;;
78430;SDS011;67727;50.236;22.452;2023-09-07T07:25:33;19.90;;;14.00;;
78430;SDS011;67727;50.236;22.452;2023-09-07T07:28:00;19.20;;;13.30;;
78430;SDS011;67727;50.236;22.452;2023-09-07T07:30:35;18.60;;;12.20;;
78430;SDS011;67727;50.236;22.452;2023-09-07T07:33:03;16.80;;;12.40;;
78430;SDS011;67727;50.236;22.452;2023-09-07T07:35:31;17.80;;;13.00;;
78430;SDS011;67727;50.236;22.452;2023-09-07T07:37:58;22.30;;;15.20;;
78430;SDS011;67727;50.236;22.452;2023-09-07T07:40:25;20.10;;;15.40;;
78430;SDS011;67727;50.236;22.452;2023-09-07T07:45:20;22.80;;;16.20;;
78430;SDS011;67727;50.236;22.452;2023-09-07T07:47:48;20.10;;;13.30;;
78430;SDS011;67727;50.236;22.452;2023-09-07T07:50:16;27.50;;;17.80;;
78430;SDS011;67727;50.236;22.452;2023-09-07T07:59:53;17.70;;;11.70;;
78430;SDS011;67727;50.236;22.452;2023-09-07T08:04:46;14.30;;;10.30;;
78430;SDS011;67727;50.236;22.452;2023-09-07T08:07:13;13.50;;;10.30;;
78430;SDS011;67727;50.236;22.452;2023-09-07T08:09:40;14.10;;;9.90;;
78430;SDS011;67727;50.236;22.452;2023-09-07T08:12:07;13.50;;;10.80;;
78430;SDS011;67727;50.236;22.452;2023-09-07T08:14:34;14.20;;;10.20;;
78430;SDS011;67727;50.236;22.452;2023-09-07T08:17:01;15.90;;;10.30;;
78430;SDS011;67727;50.236;22.452;2023-09-07T08:19:28;12.70;;;8.90;;
78430;SDS011;67727;50.236;22.452;2023-09-07T08:21:56;12.80;;;9.50;;
78430;SDS011;67727;50.236;22.452;2023-09-07T08:24:25;13.70;;;9.70;;
78430;SDS011;67727;50.236;22.452;2023-09-07T08:26:51;13.00;;;9.80;;
78430;SDS011;67727;50.236;22.452;2023-09-07T08:29:21;13.20;;;9.50;;
78430;SDS011;67727;50.236;22.452;2023-09-07T08:31:51;14.20;;;10.20;;
78430;SDS011;67727;50.236;22.452;2023-09-07T08:36:47;13.60;;;9.60;;
78430;SDS011;67727;50.236;22.452;2023-09-07T08:39:16;14.20;;;9.70;;
78430;SDS011;67727;50.236;22.452;2023-09-07T08:41:43;14.30;;;8.80;;
78430;SDS011;67727;50.236;22.452;2023-09-07T08:44:11;12.00;;;8.50;;
78430;SDS011;67727;50.236;22.452;2023-09-07T08:46:38;11.80;;;8.50;;
78430;SDS011;67727;50.236;22.452;2023-09-07T08:49:07;19.00;;;9.50;;
78430;SDS011;67727;50.236;22.452;2023-09-07T08:51:35;14.60;;;9.40;;
78430;SDS011;67727;50.236;22.452;2023-09-07T08:54:04;11.90;;;8.70;;
78430;SDS011;67727;50.236;22.452;2023-09-07T08:56:31;11.80;;;9.40;;
78430;SDS011;67727;50.236;22.452;2023-09-07T08:58:58;16.60;;;9.10;;
78430;SDS011;67727;50.236;22.452;2023-09-07T09:01:25;12.90;;;10.10;;
78430;SDS011;67727;50.236;22.452;2023-09-07T09:06:20;13.00;;;8.50;;
78430;SDS011;67727;50.236;22.452;2023-09-07T09:08:53;12.40;;;8.60;;
78430;SDS011;67727;50.236;22.452;2023-09-07T09:11:23;11.30;;;7.90;;
78430;SDS011;67727;50.236;22.452;2023-09-07T09:13:51;12.80;;;8.90;;
78430;SDS011;67727;50.236;22.452;2023-09-07T09:16:20;12.00;;;8.20;;
78430;SDS011;67727;50.236;22.452;2023-09-07T09:18:57;10.60;;;8.30;;
78430;SDS011;67727;50.236;22.452;2023-09-07T09:21:25;13.90;;;8.50;;
78430;SDS011;67727;50.236;22.452;2023-09-07T09:23:53;12.30;;;8.50;;
78430;SDS011;67727;50.236;22.452;2023-09-07T09:26:24;11.50;;;8.40;;
78430;SDS011;67727;50.236;22.452;2023-09-07T09:31:19;16.90;;;8.30;;
78430;SDS011;67727;50.236;22.452;2023-09-07T09:33:48;10.80;;;8.00;;
78430;SDS011;67727;50.236;22.452;2023-09-07T09:36:20;14.60;;;8.40;;
78430;SDS011;67727;50.236;22.452;2023-09-07T09:38:47;10.40;;;6.50;;
78430;SDS011;67727;50.236;22.452;2023-09-07T09:41:16;9.50;;;7.60;;
78430;SDS011;67727;50.236;22.452;2023-09-07T09:43:44;11.40;;;7.40;;
78430;SDS011;67727;50.236;22.452;2023-09-07T09:46:15;12.10;;;7.90;;
78430;SDS011;67727;50.236;22.452;2023-09-07T09:48:42;11.70;;;7.80;;
78430;SDS011;67727;50.236;22.452;2023-09-07T09:51:10;12.30;;;6.60;;
78430;SDS011;67727;50.236;22.452;2023-09-07T09:53:40;9.00;;;6.30;;
78430;SDS011;67727;50.236;22.452;2023-09-07T09:56:08;9.00;;;5.70;;
78430;SDS011;67727;50.236;22.452;2023-09-07T09:58:35;7.70;;;6.10;;
78430;SDS011;67727;50.236;22.452;2023-09-07T10:01:02;9.50;;;6.40;;
78430;SDS011;67727;50.236;22.452;2023-09-07T10:03:32;10.40;;;5.70;;
78430;SDS011;67727;50.236;22.452;2023-09-07T10:06:49;6.80;;;4.90;;
78430;SDS011;67727;50.236;22.452;2023-09-07T10:09:07;10.10;;;5.50;;
78430;SDS011;67727;50.236;22.452;2023-09-07T10:11:37;8.10;;;6.10;;
78430;SDS011;67727;50.236;22.452;2023-09-07T10:14:06;8.90;;;5.90;;
78430;SDS011;67727;50.236;22.452;2023-09-07T10:16:40;9.30;;;6.50;;
78430;SDS011;67727;50.236;22.452;2023-09-07T10:19:21;8.90;;;6.40;;
78430;SDS011;67727;50.236;22.452;2023-09-07T10:21:50;11.40;;;7.40;;
78430;SDS011;67727;50.236;22.452;2023-09-07T10:24:29;8.90;;;7.20;;
78430;SDS011;67727;50.236;22.452;2023-09-07T10:27:04;8.80;;;7.30;;
78430;SDS011;67727;50.236;22.452;2023-09-07T10:32:26;8.20;;;6.60;;
78430;SDS011;67727;50.236;22.452;2023-09-07T10:34:53;8.70;;;6.70;;
78430;SDS011;67727;50.236;22.452;2023-09-07T10:39:46;10.00;;;6.20;;
78430;SDS011;67727;50.236;22.452;2023-09-07T10:42:22;9.50;;;5.80;;
78430;SDS011;67727;50.236;22.452;2023-09-07T10:44:54;10.40;;;5.70;;
78430;SDS011;67727;50.236;22.452;2023-09-07T10:47:20;7.60;;;5.60;;
78430;SDS011;67727;50.236;22.452;2023-09-07T10:49:48;7.90;;;5.60;;
78430;SDS011;67727;50.236;22.452;2023-09-07T10:52:15;9.30;;;5.40;;
78430;SDS011;67727;50.236;22.452;2023-09-07T10:57:09;8.60;;;4.80;;
78430;SDS011;67727;50.236;22.452;2023-09-07T10:59:44;8.00;;;5.70;;
78430;SDS011;67727;50.236;22.452;2023-09-07T11:02:12;7.00;;;5.30;;
78430;SDS011;67727;50.236;22.452;2023-09-07T11:04:39;7.30;;;5.10;;
78430;SDS011;67727;50.236;22.452;2023-09-07T11:09:33;5.70;;;4.30;;
78430;SDS011;67727;50.236;22.452;2023-09-07T11:14:34;7.40;;;4.90;;
78430;SDS011;67727;50.236;22.452;2023-09-07T11:19:27;9.20;;;5.00;;
78430;SDS011;67727;50.236;22.452;2023-09-07T11:21:58;6.70;;;4.90;;
78430;SDS011;67727;50.236;22.452;2023-09-07T11:24:25;7.00;;;5.00;;
78430;SDS011;67727;50.236;22.452;2023-09-07T11:26:52;5.50;;;4.40;;
78430;SDS011;67727;50.236;22.452;2023-09-07T11:29:19;9.50;;;5.10;;
78430;SDS011;67727;50.236;22.452;2023-09-07T11:31:46;7.60;;;4.70;;
78430;SDS011;67727;50.236;22.452;2023-09-07T11:34:14;7.40;;;4.40;;
78430;SDS011;67727;50.236;22.452;2023-09-07T11:36:43;7.70;;;5.50;;
78430;SDS011;67727;50.236;22.452;2023-09-07T11:39:10;7.40;;;4.10;;
78430;SDS011;67727;50.236;22.452;2023-09-07T11:41:43;7.60;;;4.60;;
78430;SDS011;67727;50.236;22.452;2023-09-07T11:44:11;7.70;;;5.00;;
78430;SDS011;67727;50.236;22.452;2023-09-07T11:46:39;7.90;;;5.10;;
78430;SDS011;67727;50.236;22.452;2023-09-07T11:49:06;6.60;;;4.70;;
78430;SDS011;67727;50.236;22.452;2023-09-07T11:51:35;6.00;;;4.90;;
78430;SDS011;67727;50.236;22.452;2023-09-07T11:54:02;8.50;;;5.10;;
78430;SDS011;67727;50.236;22.452;2023-09-07T11:56:29;8.00;;;5.10;;
78430;SDS011;67727;50.236;22.452;2023-09-07T11:58:57;7.90;;;5.10;;
78430;SDS011;67727;50.236;22.452;2023-09-07T12:01:24;6.60;;;4.30;;
78430;SDS011;67727;50.236;22.452;2023-09-07T12:03:52;6.40;;;4.20;;
78430;SDS011;67727;50.236;22.452;2023-09-07T12:06:19;6.40;;;4.40;;
78430;SDS011;67727;50.236;22.452;2023-09-07T12:08:59;7.40;;;5.10;;
78430;SDS011;67727;50.236;22.452;2023-09-07T12:11:26;6.30;;;4.40;;
78430;SDS011;67727;50.236;22.452;2023-09-07T12:13:53;6.90;;;5.00;;
78430;SDS011;67727;50.236;22.452;2023-09-07T12:18:47;7.00;;;4.40;;
78430;SDS011;67727;50.236;22.452;2023-09-07T12:23:40;8.00;;;4.00;;
78430;SDS011;67727;50.236;22.452;2023-09-07T12:26:07;6.50;;;4.30;;
78430;SDS011;67727;50.236;22.452;2023-09-07T12:28:35;4.70;;;4.00;;
78430;SDS011;67727;50.236;22.452;2023-09-07T12:31:02;8.30;;;4.50;;
78430;SDS011;67727;50.236;22.452;2023-09-07T12:35:56;5.90;;;4.20;;
78430;SDS011;67727;50.236;22.452;2023-09-07T12:38:23;5.60;;;3.90;;
78430;SDS011;67727;50.236;22.452;2023-09-07T12:40:54;5.80;;;4.00;;
78430;SDS011;67727;50.236;22.452;2023-09-07T12:43:21;9.10;;;4.30;;
78430;SDS011;67727;50.236;22.452;2023-09-07T12:45:48;5.50;;;4.40;;
78430;SDS011;67727;50.236;22.452;2023-09-07T12:48:15;8.30;;;4.90;;
78430;SDS011;67727;50.236;22.452;2023-09-07T12:50:42;8.60;;;4.30;;
78430;SDS011;67727;50.236;22.452;2023-09-07T12:53:09;6.50;;;4.30;;
78430;SDS011;67727;50.236;22.452;2023-09-07T12:55:36;7.30;;;4.40;;
78430;SDS011;67727;50.236;22.452;2023-09-07T13:00:30;5.40;;;3.70;;
78430;SDS011;67727;50.236;22.452;2023-09-07T13:02:56;6.40;;;4.20;;
78430;SDS011;67727;50.236;22.452;2023-09-07T13:05:24;5.40;;;4.00;;
78430;SDS011;67727;50.236;22.452;2023-09-07T13:10:19;5.30;;;4.40;;
78430;SDS011;67727;50.236;22.452;2023-09-07T13:12:45;6.80;;;3.80;;
78430;SDS011;67727;50.236;22.452;2023-09-07T13:17:39;6.50;;;4.40;;
78430;SDS011;67727;50.236;22.452;2023-09-07T13:22:32;6.00;;;4.20;;
78430;SDS011;67727;50.236;22.452;2023-09-07T13:24:59;7.40;;;4.30;;
78430;SDS011;67727;50.236;22.452;2023-09-07T13:27:27;5.90;;;4.10;;
78430;SDS011;67727;50.236;22.452;2023-09-07T13:32:20;6.80;;;3.90;;
78430;SDS011;67727;50.236;22.452;2023-09-07T13:37:14;6.20;;;4.70;;
78430;SDS011;67727;50.236;22.452;2023-09-07T13:39:40;5.40;;;4.60;;
78430;SDS011;67727;50.236;22.452;2023-09-07T13:44:34;6.30;;;4.20;;
78430;SDS011;67727;50.236;22.452;2023-09-07T13:47:01;6.50;;;4.30;;
78430;SDS011;67727;50.236;22.452;2023-09-07T13:51:54;7.90;;;4.50;;
78430;SDS011;67727;50.236;22.452;2023-09-07T13:56:48;5.20;;;4.10;;
78430;SDS011;67727;50.236;22.452;2023-09-07T13:59:15;6.60;;;4.00;;
78430;SDS011;67727;50.236;22.452;2023-09-07T14:04:08;6.80;;;4.50;;
78430;SDS011;67727;50.236;22.452;2023-09-07T14:06:35;10.10;;;4.80;;
78430;SDS011;67727;50.236;22.452;2023-09-07T14:11:29;9.60;;;4.50;;
78430;SDS011;67727;50.236;22.452;2023-09-07T14:13:55;7.50;;;4.50;;
78430;SDS011;67727;50.236;22.452;2023-09-07T14:16:22;8.50;;;4.70;;
78430;SDS011;67727;50.236;22.452;2023-09-07T14:18:49;6.70;;;4.00;;
78430;SDS011;67727;50.236;22.452;2023-09-07T14:21:17;5.30;;;4.00;;
78430;SDS011;67727;50.236;22.452;2023-09-07T14:23:44;7.10;;;4.70;;
78430;SDS011;67727;50.236;22.452;2023-09-07T14:26:12;7.30;;;4.20;;
78430;SDS011;67727;50.236;22.452;2023-09-07T14:31:06;7.20;;;4.50;;
78430;SDS011;67727;50.236;22.452;2023-09-07T14:33:34;6.40;;;4.50;;
78430;SDS011;67727;50.236;22.452;2023-09-07T14:36:05;5.80;;;4.50;;
78430;SDS011;67727;50.236;22.452;2023-09-07T14:38:32;5.70;;;4.10;;
78430;SDS011;67727;50.236;22.452;2023-09-07T14:41:06;7.40;;;4.30;;
78430;SDS011;67727;50.236;22.452;2023-09-07T14:43:37;7.20;;;4.10;;
78430;SDS011;67727;50.236;22.452;2023-09-07T14:46:04;5.80;;;4.40;;
78430;SDS011;67727;50.236;22.452;2023-09-07T14:48:31;5.40;;;4.00;;
78430;SDS011;67727;50.236;22.452;2023-09-07T14:50:58;7.60;;;4.10;;
78430;SDS011;67727;50.236;22.452;2023-09-07T14:53:25;9.00;;;4.40;;
78430;SDS011;67727;50.236;22.452;2023-09-07T14:58:19;6.00;;;4.20;;
78430;SDS011;67727;50.236;22.452;2023-09-07T15:00:47;5.80;;;4.10;;
78430;SDS011;67727;50.236;22.452;2023-09-07T15:03:13;5.00;;;4.10;;
78430;SDS011;67727;50.236;22.452;2023-09-07T15:08:07;5.70;;;4.10;;
78430;SDS011;67727;50.236;22.452;2023-09-07T15:10:34;5.60;;;4.00;;
78430;SDS011;67727;50.236;22.452;2023-09-07T15:15:32;6.30;;;4.60;;
78430;SDS011;67727;50.236;22.452;2023-09-07T15:18:02;6.30;;;4.20;;
78430;SDS011;67727;50.236;22.452;2023-09-07T15:20:30;5.90;;;4.00;;
78430;SDS011;67727;50.236;22.452;2023-09-07T15:22:56;5.60;;;4.40;;
78430;SDS011;67727;50.236;22.452;2023-09-07T15:25:23;7.40;;;4.00;;
78430;SDS011;67727;50.236;22.452;2023-09-07T15:27:50;9.10;;;4.50;;
78430;SDS011;67727;50.236;22.452;2023-09-07T15:30:17;5.90;;;4.10;;
78430;SDS011;67727;50.236;22.452;2023-09-07T15:32:44;5.20;;;3.90;;
78430;SDS011;67727;50.236;22.452;2023-09-07T15:35:10;6.90;;;4.20;;
78430;SDS011;67727;50.236;22.452;2023-09-07T15:37:37;6.30;;;4.30;;
78430;SDS011;67727;50.236;22.452;2023-09-07T15:40:05;5.50;;;4.00;;
78430;SDS011;67727;50.236;22.452;2023-09-07T15:42:32;6.80;;;4.50;;
78430;SDS011;67727;50.236;22.452;2023-09-07T15:44:59;8.40;;;5.00;;
78430;SDS011;67727;50.236;22.452;2023-09-07T15:49:53;10.30;;;4.80;;
78430;SDS011;67727;50.236;22.452;2023-09-07T15:52:20;8.60;;;4.30;;
78430;SDS011;67727;50.236;22.452;2023-09-07T15:54:47;7.00;;;4.50;;
78430;SDS011;67727;50.236;22.452;2023-09-07T15:57:14;6.20;;;4.30;;
78430;SDS011;67727;50.236;22.452;2023-09-07T16:02:07;8.60;;;4.30;;
78430;SDS011;67727;50.236;22.452;2023-09-07T16:04:34;7.10;;;3.70;;
78430;SDS011;67727;50.236;22.452;2023-09-07T16:07:01;6.70;;;4.10;;
78430;SDS011;67727;50.236;22.452;2023-09-07T16:09:28;7.60;;;4.10;;
78430;SDS011;67727;50.236;22.452;2023-09-07T16:11:55;8.30;;;4.50;;
78430;SDS011;67727;50.236;22.452;2023-09-07T16:14:21;6.80;;;4.00;;
78430;SDS011;67727;50.236;22.452;2023-09-07T16:16:48;7.10;;;4.10;;
78430;SDS011;67727;50.236;22.452;2023-09-07T16:19:15;9.40;;;4.30;;
78430;SDS011;67727;50.236;22.452;2023-09-07T16:21:42;9.40;;;4.70;;
78430;SDS011;67727;50.236;22.452;2023-09-07T16:24:08;6.80;;;4.20;;
78430;SDS011;67727;50.236;22.452;2023-09-07T16:26:37;8.40;;;4.60;;
78430;SDS011;67727;50.236;22.452;2023-09-07T16:29:04;12.00;;;5.90;;
78430;SDS011;67727;50.236;22.452;2023-09-07T16:31:31;13.00;;;6.00;;
78430;SDS011;67727;50.236;22.452;2023-09-07T16:33:57;10.90;;;6.60;;
78430;SDS011;67727;50.236;22.452;2023-09-07T16:36:24;11.80;;;7.00;;
78430;SDS011;67727;50.236;22.452;2023-09-07T16:41:18;8.60;;;5.80;;
78430;SDS011;67727;50.236;22.452;2023-09-07T16:43:44;12.20;;;8.00;;
78430;SDS011;67727;50.236;22.452;2023-09-07T16:46:11;14.40;;;8.30;;
78430;SDS011;67727;50.236;22.452;2023-09-07T16:48:38;13.40;;;8.80;;
78430;SDS011;67727;50.236;22.452;2023-09-07T16:51:05;17.20;;;10.00;;
78430;SDS011;67727;50.236;22.452;2023-09-07T16:53:32;15.30;;;9.90;;
78430;SDS011;67727;50.236;22.452;2023-09-07T16:55:59;14.80;;;10.00;;
78430;SDS011;67727;50.236;22.452;2023-09-07T16:58:25;14.80;;;8.70;;
78430;SDS011;67727;50.236;22.452;2023-09-07T17:00:52;14.00;;;7.50;;
78430;SDS011;67727;50.236;22.452;2023-09-07T17:03:19;11.80;;;7.60;;
78430;SDS011;67727;50.236;22.452;2023-09-07T17:05:47;12.80;;;7.80;;
78430;SDS011;67727;50.236;22.452;2023-09-07T17:08:14;15.70;;;8.60;;
78430;SDS011;67727;50.236;22.452;2023-09-07T17:10:44;13.00;;;8.30;;
78430;SDS011;67727;50.236;22.452;2023-09-07T17:13:12;14.00;;;6.90;;
78430;SDS011;67727;50.236;22.452;2023-09-07T17:15:38;12.20;;;7.30;;
78430;SDS011;67727;50.236;22.452;2023-09-07T17:18:05;11.80;;;7.60;;
78430;SDS011;67727;50.236;22.452;2023-09-07T17:20:34;15.40;;;7.90;;
78430;SDS011;67727;50.236;22.452;2023-09-07T17:23:02;16.20;;;7.90;;
78430;SDS011;67727;50.236;22.452;2023-09-07T17:25:32;13.30;;;7.40;;
78430;SDS011;67727;50.236;22.452;2023-09-07T17:28:00;12.00;;;8.00;;
78430;SDS011;67727;50.236;22.452;2023-09-07T17:30:29;12.10;;;8.50;;
78430;SDS011;67727;50.236;22.452;2023-09-07T17:32:57;18.10;;;9.20;;
78430;SDS011;67727;50.236;22.452;2023-09-07T17:35:24;12.60;;;8.20;;
78430;SDS011;67727;50.236;22.452;2023-09-07T17:37:51;16.20;;;8.10;;
78430;SDS011;67727;50.236;22.452;2023-09-07T17:40:18;16.50;;;8.10;;
78430;SDS011;67727;50.236;22.452;2023-09-07T17:42:45;16.50;;;8.70;;
78430;SDS011;67727;50.236;22.452;2023-09-07T17:45:11;16.00;;;8.60;;
78430;SDS011;67727;50.236;22.452;2023-09-07T17:47:39;17.40;;;9.00;;
78430;SDS011;67727;50.236;22.452;2023-09-07T17:50:06;15.40;;;8.90;;
78430;SDS011;67727;50.236;22.452;2023-09-07T17:52:33;16.90;;;9.80;;
78430;SDS011;67727;50.236;22.452;2023-09-07T17:55:01;18.70;;;9.80;;
78430;SDS011;67727;50.236;22.452;2023-09-07T17:57:28;18.40;;;9.70;;
78430;SDS011;67727;50.236;22.452;2023-09-07T17:59:55;17.30;;;9.20;;
78430;SDS011;67727;50.236;22.452;2023-09-07T18:02:22;17.60;;;9.00;;
78430;SDS011;67727;50.236;22.452;2023-09-07T18:04:54;17.80;;;9.50;;
78430;SDS011;67727;50.236;22.452;2023-09-07T18:07:21;19.40;;;9.10;;
78430;SDS011;67727;50.236;22.452;2023-09-07T18:09:49;14.50;;;8.80;;
78430;SDS011;67727;50.236;22.452;2023-09-07T18:12:19;11.80;;;8.20;;
78430;SDS011;67727;50.236;22.452;2023-09-07T18:14:46;16.70;;;7.70;;
78430;SDS011;67727;50.236;22.452;2023-09-07T18:17:14;14.80;;;8.20;;
78430;SDS011;67727;50.236;22.452;2023-09-07T18:19:41;15.10;;;8.20;;
78430;SDS011;67727;50.236;22.452;2023-09-07T18:22:08;11.80;;;7.40;;
78430;SDS011;67727;50.236;22.452;2023-09-07T18:24:36;14.30;;;7.70;;
78430;SDS011;67727;50.236;22.452;2023-09-07T18:27:03;12.30;;;7.00;;
78430;SDS011;67727;50.236;22.452;2023-09-07T18:29:30;11.20;;;6.40;;
78430;SDS011;67727;50.236;22.452;2023-09-07T18:31:59;15.10;;;7.40;;
78430;SDS011;67727;50.236;22.452;2023-09-07T18:34:26;13.20;;;7.40;;
78430;SDS011;67727;50.236;22.452;2023-09-07T18:36:53;12.60;;;7.30;;
78430;SDS011;67727;50.236;22.452;2023-09-07T18:39:20;15.50;;;8.10;;
78430;SDS011;67727;50.236;22.452;2023-09-07T18:41:46;16.10;;;8.00;;
78430;SDS011;67727;50.236;22.452;2023-09-07T18:44:13;23.30;;;12.80;;
78430;SDS011;67727;50.236;22.452;2023-09-07T18:46:41;23.20;;;11.30;;
78430;SDS011;67727;50.236;22.452;2023-09-07T18:49:07;16.00;;;10.70;;
78430;SDS011;67727;50.236;22.452;2023-09-07T18:51:34;19.70;;;10.10;;
78430;SDS011;67727;50.236;22.452;2023-09-07T18:54:01;21.10;;;10.50;;
78430;SDS011;67727;50.236;22.452;2023-09-07T18:56:28;17.80;;;9.70;;
78430;SDS011;67727;50.236;22.452;2023-09-07T18:58:55;18.50;;;9.30;;
78430;SDS011;67727;50.236;22.452;2023-09-07T19:01:22;16.50;;;10.60;;
78430;SDS011;67727;50.236;22.452;2023-09-07T19:03:53;17.70;;;10.20;;
78430;SDS011;67727;50.236;22.452;2023-09-07T19:06:20;16.10;;;10.10;;
78430;SDS011;67727;50.236;22.452;2023-09-07T19:08:47;14.70;;;11.40;;
78430;SDS011;67727;50.236;22.452;2023-09-07T19:11:14;23.30;;;14.60;;
78430;SDS011;67727;50.236;22.452;2023-09-07T19:13:41;24.60;;;15.20;;
78430;SDS011;67727;50.236;22.452;2023-09-07T19:16:10;23.00;;;15.20;;
78430;SDS011;67727;50.236;22.452;2023-09-07T19:18:40;28.40;;;17.40;;
78430;SDS011;67727;50.236;22.452;2023-09-07T19:21:07;38.20;;;17.60;;
78430;SDS011;67727;50.236;22.452;2023-09-07T19:23:34;25.70;;;17.00;;
78430;SDS011;67727;50.236;22.452;2023-09-07T19:26:01;26.70;;;15.70;;
78430;SDS011;67727;50.236;22.452;2023-09-07T19:28:29;21.30;;;14.40;;
78430;SDS011;67727;50.236;22.452;2023-09-07T19:30:56;20.80;;;12.80;;
78430;SDS011;67727;50.236;22.452;2023-09-07T19:33:22;19.10;;;12.90;;
78430;SDS011;67727;50.236;22.452;2023-09-07T19:35:50;21.00;;;12.80;;
78430;SDS011;67727;50.236;22.452;2023-09-07T19:38:17;19.00;;;11.20;;
78430;SDS011;67727;50.236;22.452;2023-09-07T19:40:43;17.00;;;10.50;;
78430;SDS011;67727;50.236;22.452;2023-09-07T19:43:10;19.80;;;10.80;;
78430;SDS011;67727;50.236;22.452;2023-09-07T19:45:38;17.60;;;11.90;;
78430;SDS011;67727;50.236;22.452;2023-09-07T19:48:04;20.50;;;12.10;;
78430;SDS011;67727;50.236;22.452;2023-09-07T19:50:31;25.30;;;13.10;;
78430;SDS011;67727;50.236;22.452;2023-09-07T19:52:58;18.10;;;11.10;;
78430;SDS011;67727;50.236;22.452;2023-09-07T19:55:25;21.70;;;12.30;;
78430;SDS011;67727;50.236;22.452;2023-09-07T19:57:51;23.30;;;13.40;;
78430;SDS011;67727;50.236;22.452;2023-09-07T20:00:18;23.70;;;14.20;;
78430;SDS011;67727;50.236;22.452;2023-09-07T20:02:48;25.30;;;15.10;;
78430;SDS011;67727;50.236;22.452;2023-09-07T20:05:15;27.40;;;14.20;;
78430;SDS011;67727;50.236;22.452;2023-09-07T20:07:42;28.10;;;16.30;;
78430;SDS011;67727;50.236;22.452;2023-09-07T20:12:36;30.30;;;16.80;;
78430;SDS011;67727;50.236;22.452;2023-09-07T20:15:04;28.20;;;14.40;;
78430;SDS011;67727;50.236;22.452;2023-09-07T20:19:58;29.80;;;16.20;;
78430;SDS011;67727;50.236;22.452;2023-09-07T20:22:25;32.60;;;16.50;;
78430;SDS011;67727;50.236;22.452;2023-09-07T22:51:27;16.80;;;10.90;;
78430;SDS011;67727;50.236;22.452;2023-09-07T22:53:53;21.50;;;12.00;;
78430;SDS011;67727;50.236;22.452;2023-09-07T22:56:21;17.30;;;11.40;;
78430;SDS011;67727;50.236;22.452;2023-09-07T22:58:48;18.20;;;11.10;;